Time;durP1;ratioP1;P1;durP2;ratioP2;P2;SDS_P1;SDS_P2;PMS_P1;PMS_P2;Temp;Humidity;BMP_temperature;BMP_pressure;BME280_temperature;BME280_humidity;BME280_pressure;Samples;Min_cycle;Max_cycle;Signal;HPM_P1;HPM_P2
2023/09/01 00:00:12;;;;;;;5.82;3.00;;;;;;;;;;5016527;28;20030;-70
2023/09/01 00:02:41;;;;;;;7.47;2.83;;;;;;;;;;5008993;28;20030;-70
2023/09/01 00:05:10;;;;;;;5.75;2.85;;;;;;;;;;5025445;28;20029;-70
2023/09/01 00:07:35;;;;;;;6.97;2.65;;;;;;;;;;5019453;28;20347;-70
2023/09/01 00:10:01;;;;;;;8.80;2.85;;;;;;;;;;4998328;28;20114;-70
2023/09/01 00:12:27;;;;;;;8.07;3.03;;;;;;;;;;5008443;28;20116;-70
2023/09/01 00:14:53;;;;;;;8.52;3.17;;;;;;;;;;5007517;28;20084;-70
2023/09/01 00:17:18;;;;;;;6.13;2.90;;;;;;;;;;5016181;28;20037;-69
2023/09/01 00:19:44;;;;;;;5.20;2.50;;;;;;;;;;5008934;28;20021;-70
2023/09/01 00:22:10;;;;;;;6.78;2.90;;;;;;;;;;5007971;28;20054;-69
2023/09/01 00:24:37;;;;;;;5.07;2.53;;;;;;;;;;5023389;28;20060;-70
2023/09/01 00:27:03;;;;;;;6.88;2.90;;;;;;;;;;5000589;28;20046;-70
2023/09/01 00:29:33;;;;;;;4.80;2.60;;;;;;;;;;5013916;28;20026;-70
2023/09/01 00:31:59;;;;;;;8.60;2.85;;;;;;;;;;5009837;28;20038;-70
2023/09/01 00:34:25;;;;;;;6.80;2.53;;;;;;;;;;5000617;28;20022;-70
2023/09/01 00:36:52;;;;;;;3.67;2.30;;;;;;;;;;5007863;28;20518;-69
2023/09/01 00:39:18;;;;;;;8.38;2.90;;;;;;;;;;5015409;28;20029;-69
2023/09/01 00:41:44;;;;;;;4.43;2.47;;;;;;;;;;5007644;28;20033;-70
2023/09/01 00:44:13;;;;;;;6.72;2.60;;;;;;;;;;5006923;28;20476;-71
2023/09/01 00:46:43;;;;;;;6.75;2.58;;;;;;;;;;5001186;28;20026;-70
2023/09/01 00:49:11;;;;;;;4.32;2.45;;;;;;;;;;5004974;28;20049;-70
2023/09/01 00:51:37;;;;;;;12.80;3.70;;;;;;;;;;5014063;28;20025;-70
2023/09/01 00:54:04;;;;;;;7.95;3.15;;;;;;;;;;5001856;28;20057;-69
2023/09/01 00:56:30;;;;;;;7.57;2.70;;;;;;;;;;4999947;28;20060;-70
2023/09/01 00:58:57;;;;;;;4.70;2.42;;;;;;;;;;5007063;28;20447;-69
2023/09/01 01:01:23;;;;;;;4.65;2.60;;;;;;;;;;5012002;28;20451;-70
2023/09/01 01:03:51;;;;;;;5.82;2.55;;;;;;;;;;5002927;28;20133;-70
2023/09/01 01:07:06;;;;;;;5.63;2.60;;;;;;;;;;5007735;28;20084;-71
2023/09/01 01:09:45;;;;;;;6.28;2.40;;;;;;;;;;4966552;28;20584;-70
2023/09/01 01:12:26;;;;;;;4.75;2.70;;;;;;;;;;4968162;28;20046;-70
2023/09/01 01:14:54;;;;;;;4.90;2.60;;;;;;;;;;4989418;28;20042;-70
2023/09/01 01:17:21;;;;;;;5.25;2.53;;;;;;;;;;5006403;28;20021;-70
2023/09/01 01:20:13;;;;;;;9.32;3.30;;;;;;;;;;5015090;28;20040;-70
2023/09/01 01:23:16;;;;;;;5.10;2.47;;;;;;;;;;5028327;28;20049;-70
2023/09/01 01:25:46;;;;;;;4.50;2.45;;;;;;;;;;5006629;28;20041;-70
2023/09/01 01:28:12;;;;;;;3.65;2.28;;;;;;;;;;5015544;28;20635;-70
2023/09/01 01:30:38;;;;;;;6.55;2.70;;;;;;;;;;5022556;28;20025;-70
2023/09/01 01:33:04;;;;;;;4.95;2.40;;;;;;;;;;5006217;28;20029;-70
2023/09/01 01:35:37;;;;;;;7.30;2.97;;;;;;;;;;5020531;28;20391;-70
2023/09/01 01:38:27;;;;;;;6.78;2.97;;;;;;;;;;5000729;28;20029;-70
2023/09/01 01:41:13;;;;;;;4.75;2.72;;;;;;;;;;4999661;28;20045;-69
2023/09/01 01:43:42;;;;;;;5.80;2.92;;;;;;;;;;5013954;28;20046;-69
2023/09/01 01:46:08;;;;;;;6.53;2.83;;;;;;;;;;5015445;28;20066;-70
2023/09/01 01:48:37;;;;;;;7.03;2.45;;;;;;;;;;5023433;28;20041;-71
2023/09/01 01:51:05;;;;;;;4.95;2.53;;;;;;;;;;5011184;28;20032;-71
2023/09/01 01:53:38;;;;;;;5.97;2.38;;;;;;;;;;5007575;28;20037;-70
2023/09/01 01:56:04;;;;;;;5.18;2.35;;;;;;;;;;5010355;28;20392;-70
2023/09/01 01:58:30;;;;;;;8.80;2.78;;;;;;;;;;5006785;28;20068;-71
2023/09/01 02:00:56;;;;;;;9.25;2.97;;;;;;;;;;5007206;28;20450;-70
2023/09/01 02:03:21;;;;;;;5.50;2.28;;;;;;;;;;5004365;28;20030;-70
2023/09/01 02:05:49;;;;;;;5.15;2.65;;;;;;;;;;5012837;28;20041;-69
2023/09/01 02:08:14;;;;;;;6.45;2.90;;;;;;;;;;5006775;28;20084;-70
2023/09/01 02:10:40;;;;;;;4.57;2.33;;;;;;;;;;5010321;28;20030;-70
2023/09/01 02:13:05;;;;;;;7.10;2.70;;;;;;;;;;5002392;28;20029;-69
2023/09/01 02:15:31;;;;;;;7.97;2.85;;;;;;;;;;5022278;28;20038;-70
2023/09/01 02:17:57;;;;;;;5.22;2.47;;;;;;;;;;5012084;28;20238;-70
2023/09/01 02:20:26;;;;;;;6.30;2.70;;;;;;;;;;5019700;28;20030;-71
2023/09/01 02:22:53;;;;;;;7.80;3.22;;;;;;;;;;4995587;28;20029;-71
2023/09/01 02:25:21;;;;;;;6.25;2.80;;;;;;;;;;5018979;28;20129;-70
2023/09/01 02:27:46;;;;;;;6.57;2.67;;;;;;;;;;5006722;28;20601;-70
2023/09/01 02:30:13;;;;;;;3.85;2.40;;;;;;;;;;5007156;28;20458;-71
2023/09/01 02:32:39;;;;;;;6.60;2.58;;;;;;;;;;5020489;28;20022;-70
2023/09/01 02:35:08;;;;;;;5.32;2.30;;;;;;;;;;5004482;28;20038;-70
2023/09/01 02:37:33;;;;;;;7.47;2.60;;;;;;;;;;4999876;28;20032;-70
2023/09/01 02:40:00;;;;;;;5.63;2.72;;;;;;;;;;5020183;28;20468;-69
2023/09/01 02:42:26;;;;;;;8.10;2.55;;;;;;;;;;5009088;28;20376;-70
2023/09/01 02:44:54;;;;;;;5.93;2.70;;;;;;;;;;5010863;28;20080;-69
2023/09/01 02:47:19;;;;;;;7.57;2.47;;;;;;;;;;5010118;28;20117;-70
2023/09/01 02:49:47;;;;;;;5.45;2.58;;;;;;;;;;5022023;28;20041;-70
2023/09/01 02:52:12;;;;;;;8.73;2.80;;;;;;;;;;5023112;28;20034;-71
2023/09/01 02:54:38;;;;;;;6.00;2.65;;;;;;;;;;5016035;28;20369;-70
2023/09/01 02:57:04;;;;;;;7.47;2.55;;;;;;;;;;5012103;28;20022;-70
2023/09/01 02:59:30;;;;;;;5.25;2.78;;;;;;;;;;5009252;28;20036;-70
2023/09/01 03:01:55;;;;;;;6.03;2.70;;;;;;;;;;5010766;28;20030;-69
2023/09/01 03:04:21;;;;;;;7.85;2.72;;;;;;;;;;5002480;28;20071;-69
2023/09/01 03:06:47;;;;;;;7.18;2.72;;;;;;;;;;5009939;28;20403;-69
2023/09/01 03:09:12;;;;;;;7.57;2.65;;;;;;;;;;5020520;28;20053;-69
2023/09/01 03:11:38;;;;;;;8.85;2.88;;;;;;;;;;5009263;28;20440;-69
2023/09/01 03:14:04;;;;;;;6.57;2.38;;;;;;;;;;5018059;28;20049;-69
2023/09/01 03:16:30;;;;;;;4.78;2.50;;;;;;;;;;5010259;28;20026;-69
2023/09/01 03:18:59;;;;;;;4.78;2.35;;;;;;;;;;5008933;28;20017;-70
2023/09/01 03:21:32;;;;;;;13.13;3.70;;;;;;;;;;5005033;28;20022;-70
2023/09/01 03:23:58;;;;;;;8.07;3.05;;;;;;;;;;5009258;28;20498;-69
2023/09/01 03:26:24;;;;;;;11.18;3.53;;;;;;;;;;5010421;28;20069;-69
2023/09/01 03:28:50;;;;;;;6.88;2.80;;;;;;;;;;5010139;28;20464;-68
2023/09/01 03:31:16;;;;;;;9.13;2.65;;;;;;;;;;5025766;28;20550;-69
2023/09/01 03:33:43;;;;;;;7.95;2.92;;;;;;;;;;5019739;28;20038;-69
2023/09/01 03:36:10;;;;;;;6.18;2.60;;;;;;;;;;5022062;28;20091;-69
2023/09/01 03:38:36;;;;;;;7.72;2.80;;;;;;;;;;5014289;28;20374;-69
2023/09/01 03:41:03;;;;;;;11.30;3.67;;;;;;;;;;5008443;28;20085;-70
2023/09/01 03:43:28;;;;;;;8.73;3.05;;;;;;;;;;5011612;28;20136;-69
2023/09/01 03:45:54;;;;;;;6.32;2.97;;;;;;;;;;5009644;28;20022;-70
2023/09/01 03:48:20;;;;;;;9.43;3.88;;;;;;;;;;5006465;28;20385;-70
2023/09/01 03:51:08;;;;;;;7.28;3.28;;;;;;;;;;5003459;28;20488;-69
2023/09/01 03:53:35;;;;;;;9.20;2.90;;;;;;;;;;5011089;28;20029;-70
2023/09/01 03:56:06;;;;;;;5.15;2.60;;;;;;;;;;5010378;28;20095;-70
2023/09/01 03:58:32;;;;;;;9.07;2.55;;;;;;;;;;4997993;28;20527;-70
2023/09/01 04:00:57;;;;;;;6.63;2.78;;;;;;;;;;5007227;28;20031;-71
2023/09/01 04:03:23;;;;;;;9.82;3.08;;;;;;;;;;4995318;28;20057;-70
2023/09/01 04:05:51;;;;;;;5.57;2.75;;;;;;;;;;5009671;28;20040;-70
2023/09/01 04:08:18;;;;;;;9.15;2.40;;;;;;;;;;5010979;28;20299;-70
2023/09/01 04:10:45;;;;;;;4.82;2.55;;;;;;;;;;5015760;28;20029;-69
2023/09/01 04:13:11;;;;;;;10.32;3.30;;;;;;;;;;5020226;28;20127;-71
2023/09/01 04:15:37;;;;;;;10.65;3.72;;;;;;;;;;5022226;28;20032;-70
2023/09/01 04:18:03;;;;;;;11.48;3.72;;;;;;;;;;5021212;28;20479;-70
2023/09/01 04:20:28;;;;;;;6.65;3.08;;;;;;;;;;5034602;28;20029;-70
2023/09/01 04:22:54;;;;;;;10.68;4.13;;;;;;;;;;4999824;28;20030;-71
2023/09/01 04:25:20;;;;;;;10.48;3.83;;;;;;;;;;5037404;28;20025;-71
2023/09/01 04:27:45;;;;;;;11.93;4.07;;;;;;;;;;5023986;28;20484;-70
2023/09/01 04:30:11;;;;;;;8.38;3.45;;;;;;;;;;5019626;28;20026;-69
2023/09/01 04:32:43;;;;;;;15.13;4.45;;;;;;;;;;5019767;28;20400;-69
2023/09/01 04:35:11;;;;;;;9.18;3.25;;;;;;;;;;5011128;28;20033;-69
2023/09/01 04:37:36;;;;;;;9.98;3.47;;;;;;;;;;5009104;28;20026;-68
2023/09/01 04:40:08;;;;;;;23.70;4.78;;;;;;;;;;5010657;28;20124;-69
2023/09/01 04:42:34;;;;;;;8.18;3.17;;;;;;;;;;5021060;28;20489;-70
2023/09/01 04:45:00;;;;;;;11.25;3.70;;;;;;;;;;5022532;28;20168;-70
2023/09/01 04:47:27;;;;;;;15.65;4.50;;;;;;;;;;5012192;28;20041;-69
2023/09/01 04:49:53;;;;;;;15.48;3.75;;;;;;;;;;5008024;28;20025;-69
2023/09/01 04:52:19;;;;;;;15.00;3.47;;;;;;;;;;5018823;28;20041;-69
2023/09/01 04:54:45;;;;;;;10.55;3.65;;;;;;;;;;5017535;28;20029;-69
2023/09/01 04:57:11;;;;;;;11.85;3.85;;;;;;;;;;5010900;28;20488;-69
2023/09/01 04:59:36;;;;;;;16.05;4.18;;;;;;;;;;5017384;28;20026;-71
2023/09/01 05:02:02;;;;;;;11.90;3.95;;;;;;;;;;5014371;28;20128;-70
2023/09/01 05:04:28;;;;;;;11.00;4.30;;;;;;;;;;5017452;28;20420;-70
2023/09/01 05:06:54;;;;;;;11.02;3.90;;;;;;;;;;5022215;28;20096;-71
2023/09/01 05:09:21;;;;;;;17.25;4.93;;;;;;;;;;5021078;28;20026;-71
2023/09/01 05:11:47;;;;;;;7.50;3.55;;;;;;;;;;5013780;28;20056;-71
2023/09/01 05:14:13;;;;;;;10.90;3.70;;;;;;;;;;5015209;28;20076;-70
2023/09/01 05:16:39;;;;;;;15.45;3.47;;;;;;;;;;5021917;28;20099;-71
2023/09/01 05:19:05;;;;;;;12.63;4.03;;;;;;;;;;5022237;28;20471;-71
2023/09/01 05:21:31;;;;;;;22.92;5.15;;;;;;;;;;5010799;28;20120;-71
2023/09/01 05:23:57;;;;;;;10.90;3.63;;;;;;;;;;5018666;28;20420;-70
2023/09/01 05:26:23;;;;;;;16.67;5.22;;;;;;;;;;5019407;28;20160;-70
2023/09/01 05:28:48;;;;;;;14.73;3.92;;;;;;;;;;5022003;28;20033;-70
2023/09/01 05:31:14;;;;;;;12.02;4.90;;;;;;;;;;5005490;28;20037;-71
2023/09/01 05:33:44;;;;;;;13.18;4.10;;;;;;;;;;5019043;28;20028;-70
2023/09/01 05:36:09;;;;;;;13.75;4.00;;;;;;;;;;5017790;28;20030;-70
2023/09/01 05:38:36;;;;;;;9.38;3.33;;;;;;;;;;4991291;28;20018;-70
2023/09/01 05:41:02;;;;;;;13.70;3.72;;;;;;;;;;4991658;28;20030;-70
2023/09/01 05:43:30;;;;;;;15.35;3.38;;;;;;;;;;5016676;28;20021;-70
2023/09/01 05:45:56;;;;;;;9.88;3.28;;;;;;;;;;5024522;28;20081;-69
2023/09/01 05:48:22;;;;;;;18.60;4.38;;;;;;;;;;5018209;28;20057;-70
2023/09/01 05:50:49;;;;;;;13.55;3.42;;;;;;;;;;5021320;28;20064;-69
2023/09/01 05:53:16;;;;;;;14.35;3.22;;;;;;;;;;5010800;28;20408;-71
2023/09/01 05:55:42;;;;;;;14.13;3.63;;;;;;;;;;5019244;28;20033;-70
2023/09/01 05:58:07;;;;;;;15.30;3.50;;;;;;;;;;5012698;28;20025;-70
2023/09/01 06:00:33;;;;;;;10.68;3.35;;;;;;;;;;5009568;28;20041;-71
2023/09/01 06:02:59;;;;;;;12.43;3.47;;;;;;;;;;5014212;28;20065;-70
2023/09/01 06:05:24;;;;;;;11.82;3.97;;;;;;;;;;5016604;28;20043;-71
2023/09/01 06:07:50;;;;;;;14.57;4.47;;;;;;;;;;5019759;28;20036;-70
2023/09/01 06:10:16;;;;;;;10.27;3.40;;;;;;;;;;5018100;28;20483;-70
2023/09/01 06:12:42;;;;;;;13.13;3.70;;;;;;;;;;5022657;28;20113;-71
2023/09/01 06:15:08;;;;;;;9.85;3.55;;;;;;;;;;5008246;28;20065;-72
2023/09/01 06:17:34;;;;;;;13.88;3.97;;;;;;;;;;5016033;28;20019;-70
2023/09/01 06:20:00;;;;;;;13.75;3.80;;;;;;;;;;5033057;28;20121;-71
2023/09/01 06:22:26;;;;;;;15.00;3.95;;;;;;;;;;5018003;28;20033;-70
2023/09/01 06:24:52;;;;;;;9.15;3.80;;;;;;;;;;5017867;28;20064;-71
2023/09/01 06:27:18;;;;;;;10.52;3.67;;;;;;;;;;5017180;28;20487;-73
2023/09/01 06:29:43;;;;;;;11.90;3.28;;;;;;;;;;5017409;28;20069;-71
2023/09/01 06:32:11;;;;;;;9.90;3.28;;;;;;;;;;5017689;28;20037;-70
2023/09/01 06:34:38;;;;;;;13.98;3.95;;;;;;;;;;5017564;28;20152;-69
2023/09/01 06:37:04;;;;;;;10.18;3.38;;;;;;;;;;5015936;28;20049;-70
2023/09/01 06:39:30;;;;;;;12.63;4.28;;;;;;;;;;5017016;28;20487;-70
2023/09/01 06:41:57;;;;;;;11.32;4.55;;;;;;;;;;5017371;28;20029;-70
2023/09/01 06:44:25;;;;;;;13.73;3.85;;;;;;;;;;5016038;28;20037;-70
2023/09/01 06:46:51;;;;;;;9.88;3.65;;;;;;;;;;5017335;28;20034;-71
2023/09/01 06:49:16;;;;;;;8.85;3.78;;;;;;;;;;5017708;28;20038;-70
2023/09/01 06:51:42;;;;;;;16.48;3.65;;;;;;;;;;5016636;28;20590;-70
2023/09/01 06:54:09;;;;;;;13.02;3.50;;;;;;;;;;5016029;28;20058;-69
2023/09/01 06:56:35;;;;;;;12.55;3.50;;;;;;;;;;5016043;28;20577;-71
2023/09/01 06:59:00;;;;;;;12.00;3.28;;;;;;;;;;5017208;28;20026;-70
2023/09/01 07:01:29;;;;;;;12.60;3.58;;;;;;;;;;5033216;28;20434;-71
2023/09/01 07:03:55;;;;;;;14.05;3.42;;;;;;;;;;5032791;28;20128;-70
2023/09/01 07:06:20;;;;;;;12.00;3.97;;;;;;;;;;5016274;28;20108;-71
2023/09/01 07:08:46;;;;;;;14.05;3.40;;;;;;;;;;5017666;28;20029;-71
2023/09/01 07:11:14;;;;;;;11.93;4.03;;;;;;;;;;5032666;28;20407;-70
2023/09/01 07:13:44;;;;;;;10.43;3.20;;;;;;;;;;5016364;28;20045;-72
2023/09/01 07:16:10;;;;;;;10.63;3.67;;;;;;;;;;5016814;28;20070;-70
2023/09/01 07:18:36;;;;;;;10.98;3.40;;;;;;;;;;5016925;28;20040;-70
2023/09/01 07:21:02;;;;;;;14.35;3.30;;;;;;;;;;5017010;28;20049;-69
2023/09/01 07:23:28;;;;;;;13.02;3.40;;;;;;;;;;5016925;28;20029;-70
2023/09/01 07:25:54;;;;;;;8.38;3.15;;;;;;;;;;5013174;28;20643;-70
2023/09/01 07:28:21;;;;;;;12.40;3.40;;;;;;;;;;5013932;28;20496;-71
2023/09/01 07:30:46;;;;;;;13.45;3.50;;;;;;;;;;5013429;28;20034;-70
2023/09/01 07:33:12;;;;;;;9.02;3.00;;;;;;;;;;5013519;28;20033;-72
2023/09/01 07:35:38;;;;;;;8.23;3.33;;;;;;;;;;5013886;28;20042;-71
2023/09/01 07:38:04;;;;;;;6.38;3.08;;;;;;;;;;5013587;28;20022;-72
2023/09/01 07:40:33;;;;;;;12.90;2.90;;;;;;;;;;5013989;28;20048;-71
2023/09/01 07:43:00;;;;;;;11.43;4.07;;;;;;;;;;5013675;28;20025;-71
2023/09/01 07:45:29;;;;;;;8.05;3.22;;;;;;;;;;5014005;28;20030;-72
2023/09/01 07:47:55;;;;;;;5.95;2.78;;;;;;;;;;5013398;28;20034;-71
2023/09/01 07:50:23;;;;;;;6.20;3.13;;;;;;;;;;5014106;28;20040;-72
2023/09/01 07:52:50;;;;;;;5.97;3.00;;;;;;;;;;5013461;28;20026;-72
2023/09/01 07:55:16;;;;;;;10.65;2.72;;;;;;;;;;5013235;28;20030;-72
2023/09/01 07:57:42;;;;;;;9.27;3.35;;;;;;;;;;5013549;28;20092;-72
2023/09/01 08:00:08;;;;;;;6.78;2.92;;;;;;;;;;5013206;28;20046;-71
2023/09/01 08:02:39;;;;;;;12.20;3.72;;;;;;;;;;5013630;28;20345;-70
2023/09/01 08:05:05;;;;;;;7.15;3.17;;;;;;;;;;5011793;28;20041;-70
2023/09/01 08:07:31;;;;;;;12.52;3.60;;;;;;;;;;5012757;28;20383;-69
2023/09/01 08:10:00;;;;;;;11.35;3.55;;;;;;;;;;5028358;28;20041;-71
2023/09/01 08:12:28;;;;;;;8.40;2.63;;;;;;;;;;5012812;28;20108;-70
2023/09/01 08:14:53;;;;;;;9.60;3.20;;;;;;;;;;4996748;28;20038;-70
2023/09/01 08:17:20;;;;;;;5.95;2.90;;;;;;;;;;5003271;28;20106;-71
2023/09/01 08:19:47;;;;;;;6.35;3.08;;;;;;;;;;5012714;28;20026;-70
2023/09/01 08:22:14;;;;;;;10.27;3.28;;;;;;;;;;5017056;28;20025;-71
2023/09/01 08:24:39;;;;;;;7.00;2.83;;;;;;;;;;5022896;28;20491;-71
2023/09/01 08:27:05;;;;;;;12.02;3.55;;;;;;;;;;5020673;28;20024;-70
2023/09/01 08:29:32;;;;;;;12.25;3.38;;;;;;;;;;5029111;28;20060;-69
2023/09/01 08:31:58;;;;;;;7.13;2.92;;;;;;;;;;5024140;28;20021;-71
2023/09/01 08:34:23;;;;;;;7.70;3.30;;;;;;;;;;5023699;28;20035;-71
2023/09/01 08:36:49;;;;;;;7.45;3.33;;;;;;;;;;5012802;28;20069;-69
2023/09/01 08:39:15;;;;;;;7.18;3.13;;;;;;;;;;5011871;28;20073;-70
2023/09/01 08:41:42;;;;;;;10.95;3.13;;;;;;;;;;5012750;28;20080;-71
2023/09/01 08:44:11;;;;;;;9.60;3.45;;;;;;;;;;5012619;28;20575;-72
2023/09/01 08:46:37;;;;;;;7.72;3.58;;;;;;;;;;5012245;28;20034;-71
2023/09/01 08:49:04;;;;;;;9.60;3.40;;;;;;;;;;5012867;28;20084;-70
2023/09/01 08:51:31;;;;;;;5.47;3.05;;;;;;;;;;5012840;28;20037;-71
2023/09/01 08:53:59;;;;;;;32.03;4.18;;;;;;;;;;5012470;28;20034;-71
2023/09/01 08:56:25;;;;;;;7.72;2.78;;;;;;;;;;5012646;28;20108;-71
2023/09/01 08:58:51;;;;;;;8.18;3.03;;;;;;;;;;5012209;28;20026;-72
2023/09/01 09:01:17;;;;;;;6.18;2.83;;;;;;;;;;5010902;28;20065;-70
2023/09/01 09:03:42;;;;;;;11.25;3.42;;;;;;;;;;5012563;28;20041;-69
2023/09/01 09:06:16;;;;;;;7.78;2.80;;;;;;;;;;5008096;28;20022;-70
2023/09/01 09:08:42;;;;;;;21.25;10.05;;;;;;;;;;4992216;28;20061;-71
2023/09/01 09:11:13;;;;;;;11.80;4.15;;;;;;;;;;5018025;28;20037;-72
2023/09/01 09:13:40;;;;;;;8.98;3.30;;;;;;;;;;5011946;28;20514;-71
2023/09/01 09:16:11;;;;;;;12.15;3.83;;;;;;;;;;5011745;28;20506;-72
2023/09/01 09:18:44;;;;;;;9.20;3.03;;;;;;;;;;5012139;28;20029;-70
2023/09/01 09:21:29;;;;;;;11.38;3.28;;;;;;;;;;5012019;28;20038;-72
2023/09/01 09:23:57;;;;;;;9.27;3.70;;;;;;;;;;5010650;28;20376;-72
2023/09/01 09:26:25;;;;;;;6.07;3.15;;;;;;;;;;5011739;28;20026;-72
2023/09/01 09:28:51;;;;;;;20.20;4.68;;;;;;;;;;5011136;28;20033;-72
2023/09/01 09:31:17;;;;;;;9.38;3.53;;;;;;;;;;5012232;28;20036;-71
2023/09/01 09:33:43;;;;;;;8.98;2.97;;;;;;;;;;5027333;28;20033;-71
2023/09/01 09:36:08;;;;;;;7.50;2.70;;;;;;;;;;5012046;28;20052;-72
2023/09/01 09:38:46;;;;;;;7.57;2.78;;;;;;;;;;5011493;28;20049;-72
2023/09/01 09:41:14;;;;;;;7.32;3.17;;;;;;;;;;5011327;28;20037;-71
2023/09/01 09:43:44;;;;;;;9.85;2.72;;;;;;;;;;5012003;28;20034;-72
2023/09/01 09:46:11;;;;;;;8.38;3.22;;;;;;;;;;5019281;28;20033;-71
2023/09/01 09:48:38;;;;;;;10.52;2.35;;;;;;;;;;5018625;28;20022;-71
2023/09/01 09:51:07;;;;;;;9.55;2.88;;;;;;;;;;5022063;28;20157;-72
2023/09/01 09:53:35;;;;;;;9.32;2.97;;;;;;;;;;5031283;28;20483;-72
2023/09/01 09:56:13;;;;;;;5.18;2.30;;;;;;;;;;5031494;28;20036;-72
2023/09/01 09:58:40;;;;;;;9.82;2.92;;;;;;;;;;5031780;28;20059;-72
2023/09/01 10:01:15;;;;;;;5.88;2.40;;;;;;;;;;5031583;28;20079;-72
2023/09/01 10:03:42;;;;;;;7.25;2.72;;;;;;;;;;5021995;28;20029;-72
2023/09/01 10:06:09;;;;;;;6.57;2.78;;;;;;;;;;5006438;28;20030;-69
2023/09/01 10:08:35;;;;;;;8.90;2.95;;;;;;;;;;5012914;28;20041;-73
2023/09/01 10:11:03;;;;;;;9.57;2.75;;;;;;;;;;5012295;28;20144;-72
2023/09/01 10:13:30;;;;;;;11.40;2.88;;;;;;;;;;5011212;28;20116;-70
2023/09/01 10:15:57;;;;;;;6.18;2.42;;;;;;;;;;5010755;28;20038;-72
2023/09/01 10:18:24;;;;;;;7.45;2.40;;;;;;;;;;5010330;28;20092;-73
2023/09/01 10:20:50;;;;;;;7.32;2.30;;;;;;;;;;5010728;28;20038;-72
2023/09/01 10:23:15;;;;;;;12.27;2.60;;;;;;;;;;5011273;28;20037;-73
2023/09/01 10:25:41;;;;;;;7.55;2.40;;;;;;;;;;5011326;28;20495;-72
2023/09/01 10:28:10;;;;;;;4.18;2.53;;;;;;;;;;5010430;28;20092;-71
2023/09/01 10:30:46;;;;;;;7.22;2.95;;;;;;;;;;5025669;28;20022;-71
2023/09/01 10:33:26;;;;;;;9.60;3.47;;;;;;;;;;5026116;28;20044;-71
2023/09/01 10:35:54;;;;;;;6.93;2.97;;;;;;;;;;5030044;28;20115;-72
2023/09/01 10:38:22;;;;;;;5.82;2.55;;;;;;;;;;5030793;28;20364;-72
2023/09/01 10:40:54;;;;;;;6.07;2.50;;;;;;;;;;5030875;28;20047;-71
2023/09/01 10:43:35;;;;;;;6.37;2.57;;;;;;;;;;5030710;28;20041;-71
2023/09/01 10:46:16;;;;;;;4.78;2.42;;;;;;;;;;5030694;28;20033;-72
2023/09/01 10:48:48;;;;;;;7.35;2.50;;;;;;;;;;5030792;28;20559;-71
2023/09/01 10:51:24;;;;;;;5.13;2.55;;;;;;;;;;5030821;28;20033;-71
2023/09/01 10:53:56;;;;;;;4.00;2.20;;;;;;;;;;5029320;28;20037;-71
2023/09/01 10:56:22;;;;;;;5.57;2.22;;;;;;;;;;5030523;28;20037;-71
2023/09/01 10:58:50;;;;;;;5.93;2.60;;;;;;;;;;5030414;28;20025;-71
2023/09/01 11:01:36;;;;;;;5.05;2.25;;;;;;;;;;5034436;28;20045;-70
2023/09/01 11:04:14;;;;;;;8.40;2.30;;;;;;;;;;5034467;28;20120;-71
2023/09/01 11:07:00;;;;;;;5.93;2.70;;;;;;;;;;5034125;28;20033;-72
2023/09/01 11:09:34;;;;;;;6.00;2.50;;;;;;;;;;5034231;28;20148;-71
2023/09/01 11:12:05;;;;;;;7.68;3.22;;;;;;;;;;5034505;28;20033;-70
2023/09/01 11:14:36;;;;;;;8.30;3.05;;;;;;;;;;5033152;28;20040;-72
2023/09/01 11:17:03;;;;;;;6.10;2.50;;;;;;;;;;5032874;28;20053;-72
2023/09/01 11:19:47;;;;;;;6.18;2.70;;;;;;;;;;5033912;28;20060;-72
2023/09/01 11:22:13;;;;;;;8.70;3.35;;;;;;;;;;5033993;28;20043;-72
2023/09/01 11:24:39;;;;;;;5.28;2.60;;;;;;;;;;5033634;28;20116;-71
2023/09/01 11:27:06;;;;;;;10.32;2.67;;;;;;;;;;5031929;28;20060;-70
2023/09/01 11:29:33;;;;;;;6.00;2.50;;;;;;;;;;5033440;28;20029;-70
2023/09/01 11:31:58;;;;;;;6.13;2.05;;;;;;;;;;5033817;28;20068;-70
2023/09/01 11:34:24;;;;;;;7.35;2.60;;;;;;;;;;5032026;28;20041;-71
2023/09/01 11:36:50;;;;;;;4.95;2.20;;;;;;;;;;5033293;28;20067;-72
2023/09/01 11:39:16;;;;;;;9.95;2.78;;;;;;;;;;5033592;28;20033;-72
2023/09/01 11:41:43;;;;;;;6.85;2.60;;;;;;;;;;5033275;28;20041;-72
2023/09/01 11:44:09;;;;;;;3.80;2.03;;;;;;;;;;5033338;28;20029;-71
2023/09/01 11:46:38;;;;;;;5.60;2.40;;;;;;;;;;5033160;28;20487;-71
2023/09/01 11:49:05;;;;;;;8.73;2.88;;;;;;;;;;5033276;28;20041;-71
2023/09/01 11:51:35;;;;;;;7.15;2.53;;;;;;;;;;5033779;28;20040;-72
2023/09/01 11:54:02;;;;;;;5.88;2.58;;;;;;;;;;5033205;28;20174;-71
2023/09/01 11:56:27;;;;;;;5.05;2.35;;;;;;;;;;5033171;28;20021;-71
2023/09/01 11:58:55;;;;;;;3.63;2.05;;;;;;;;;;5032846;28;20100;-70
2023/09/01 12:01:25;;;;;;;10.05;3.60;;;;;;;;;;5033065;28;20479;-70
2023/09/01 12:03:53;;;;;;;5.78;2.83;;;;;;;;;;5032927;28;20092;-70
2023/09/01 12:06:23;;;;;;;10.13;3.40;;;;;;;;;;5033089;28;20368;-70
2023/09/01 12:08:51;;;;;;;6.13;2.50;;;;;;;;;;5048519;28;20041;-69
2023/09/01 12:11:18;;;;;;;9.00;3.30;;;;;;;;;;5032165;28;20144;-70
2023/09/01 12:13:44;;;;;;;4.95;2.30;;;;;;;;;;5033220;28;20087;-70
2023/09/01 12:16:20;;;;;;;9.70;2.80;;;;;;;;;;5033297;28;20037;-69
2023/09/01 12:18:46;;;;;;;6.80;2.40;;;;;;;;;;5033185;28;20082;-72
2023/09/01 12:21:11;;;;;;;5.13;2.38;;;;;;;;;;5032005;28;20063;-70
2023/09/01 12:23:39;;;;;;;5.75;2.60;;;;;;;;;;5032455;28;20050;-71
2023/09/01 12:26:07;;;;;;;4.25;2.10;;;;;;;;;;5032681;28;20503;-71
2023/09/01 12:28:35;;;;;;;15.48;2.72;;;;;;;;;;5033514;28;20034;-72
2023/09/01 12:31:02;;;;;;;6.50;2.53;;;;;;;;;;5033532;28;20036;-71
2023/09/01 12:33:28;;;;;;;7.22;3.13;;;;;;;;;;5031289;28;20510;-71
2023/09/01 12:35:54;;;;;;;8.88;2.90;;;;;;;;;;5048297;28;20029;-71
2023/09/01 12:38:21;;;;;;;7.38;2.17;;;;;;;;;;5032980;28;20069;-70
2023/09/01 12:40:48;;;;;;;5.47;2.83;;;;;;;;;;5033302;28;20018;-71
2023/09/01 12:43:14;;;;;;;6.22;2.55;;;;;;;;;;5032950;28;20151;-70
2023/09/01 12:45:40;;;;;;;5.00;2.80;;;;;;;;;;5032953;28;20033;-71
2023/09/01 12:48:06;;;;;;;4.32;2.45;;;;;;;;;;5032664;28;20457;-70
2023/09/01 12:50:32;;;;;;;5.75;2.20;;;;;;;;;;5032657;28;20104;-70
2023/09/01 12:52:58;;;;;;;4.68;2.08;;;;;;;;;;5032833;28;20037;-71
2023/09/01 12:55:26;;;;;;;3.90;2.03;;;;;;;;;;5034291;28;20357;-71
2023/09/01 12:57:53;;;;;;;7.22;3.03;;;;;;;;;;5032927;28;20042;-70
2023/09/01 13:00:20;;;;;;;3.65;1.80;;;;;;;;;;5032933;28;20558;-71
2023/09/01 13:02:49;;;;;;;5.78;2.13;;;;;;;;;;5032107;28;20037;-71
2023/09/01 13:05:17;;;;;;;7.75;2.42;;;;;;;;;;5016728;28;20026;-71
2023/09/01 13:07:47;;;;;;;8.43;2.30;;;;;;;;;;5034179;28;20033;-72
2023/09/01 13:10:16;;;;;;;5.57;2.35;;;;;;;;;;5033653;28;20021;-72
2023/09/01 13:12:42;;;;;;;9.85;2.38;;;;;;;;;;5033894;28;20033;-70
2023/09/01 13:15:10;;;;;;;3.92;2.00;;;;;;;;;;5032530;28;20436;-71
2023/09/01 13:17:36;;;;;;;3.80;2.03;;;;;;;;;;5031909;28;20033;-72
2023/09/01 13:20:03;;;;;;;5.72;2.33;;;;;;;;;;5032931;28;20374;-72
2023/09/01 13:22:29;;;;;;;6.15;1.90;;;;;;;;;;5031638;28;20040;-71
2023/09/01 13:24:55;;;;;;;5.45;2.53;;;;;;;;;;5048036;28;20399;-70
2023/09/01 13:27:22;;;;;;;6.22;2.65;;;;;;;;;;5032721;28;20037;-73
2023/09/01 13:29:48;;;;;;;5.38;2.10;;;;;;;;;;5031373;28;20031;-70
2023/09/01 13:32:15;;;;;;;5.97;2.17;;;;;;;;;;5030938;28;20112;-72
2023/09/01 13:34:41;;;;;;;5.90;2.15;;;;;;;;;;5047194;28;20471;-69
2023/09/01 13:37:11;;;;;;;7.53;2.85;;;;;;;;;;5032067;28;20040;-72
2023/09/01 13:39:38;;;;;;;6.90;2.30;;;;;;;;;;5032364;28;20106;-71
2023/09/01 13:42:04;;;;;;;5.30;2.10;;;;;;;;;;5032050;28;20025;-71
2023/09/01 13:44:30;;;;;;;3.55;2.08;;;;;;;;;;5032043;28;20045;-71
2023/09/01 13:46:56;;;;;;;9.52;2.42;;;;;;;;;;5031991;28;20160;-71
2023/09/01 13:49:22;;;;;;;6.50;2.42;;;;;;;;;;5032355;28;20034;-71
2023/09/01 13:51:47;;;;;;;3.75;2.15;;;;;;;;;;5031672;28;20550;-71
2023/09/01 13:54:13;;;;;;;4.45;2.00;;;;;;;;;;5031850;28;20080;-72
2023/09/01 13:56:39;;;;;;;6.65;2.33;;;;;;;;;;5032071;28;20052;-71
2023/09/01 13:59:05;;;;;;;6.93;2.10;;;;;;;;;;5031934;28;20069;-71
2023/09/01 14:01:31;;;;;;;4.75;1.80;;;;;;;;;;5031839;28;20078;-72
2023/09/01 14:03:56;;;;;;;5.55;2.47;;;;;;;;;;5031634;28;20033;-72
2023/09/01 14:06:22;;;;;;;4.68;2.20;;;;;;;;;;5031516;28;20030;-71
2023/09/01 14:08:48;;;;;;;4.95;2.08;;;;;;;;;;5030144;28;20042;-73
2023/09/01 14:11:14;;;;;;;5.75;2.58;;;;;;;;;;5030234;28;20572;-72
2023/09/01 14:13:39;;;;;;;4.75;2.08;;;;;;;;;;5031263;28;20045;-72
2023/09/01 14:16:05;;;;;;;4.25;2.42;;;;;;;;;;5031314;28;20033;-71
2023/09/01 14:18:31;;;;;;;4.20;2.13;;;;;;;;;;5046884;28;20058;-72
2023/09/01 14:20:57;;;;;;;5.80;2.03;;;;;;;;;;5031733;28;20021;-70
2023/09/01 14:23:25;;;;;;;4.28;2.05;;;;;;;;;;5029323;28;20030;-70
2023/09/01 14:25:53;;;;;;;3.63;2.00;;;;;;;;;;5011710;28;20045;-72
2023/09/01 14:28:19;;;;;;;3.45;1.50;;;;;;;;;;5018397;28;20049;-72
2023/09/01 14:30:46;;;;;;;4.25;1.90;;;;;;;;;;5031310;28;20043;-71
2023/09/01 14:33:12;;;;;;;3.40;1.85;;;;;;;;;;5031414;28;20029;-71
2023/09/01 14:35:38;;;;;;;5.35;1.88;;;;;;;;;;5034484;28;20029;-71
2023/09/01 14:38:05;;;;;;;3.35;1.88;;;;;;;;;;5035088;28;20219;-70
2023/09/01 14:40:31;;;;;;;3.30;1.98;;;;;;;;;;5035187;28;20488;-72